Time;durP1;ratioP1;P1;durP2;ratioP2;P2;SDS_P1;SDS_P2;PMS_P1;PMS_P2;Temp;Humidity;BMP_temperature;BMP_pressure;BME280_temperature;BME280_humidity;BME280_pressure;Samples;Min_cycle;Max_cycle;Signal;HPM_P1;HPM_P2
2021/08/03 00:02:00;;;;;;;;;;;;;;;14.05;80.05;101460.44;5054930;28;20307;-46
2021/08/03 00:04:46;;;;;;;;;;;;;;;14.00;79.59;101457.25;5054955;28;19920;-43
2021/08/03 00:07:12;;;;;;;;;;;;;;;13.99;79.47;101451.13;5054780;28;19956;-46
2021/08/03 00:09:39;;;;;;;;;;;;;;;13.99;79.81;101455.59;5069641;28;19920;-60
2021/08/03 00:12:06;;;;;;;;;;;;;;;13.96;79.99;101455.78;5054663;28;20419;-47
2021/08/03 00:14:34;;;;;;;;;;;;;;;13.85;80.70;101445.94;5054203;28;20390;-50
2021/08/03 00:17:00;;;;;;;;;;;;;;;13.81;80.37;101444.47;5053439;28;19921;-46
2021/08/03 00:19:27;;;;;;;;;;;;;;;13.81;80.59;101447.97;5054562;28;19978;-49
2021/08/03 00:21:54;;;;;;;;;;;;;;;13.92;80.01;101444.59;5053261;28;19921;-47
2021/08/03 00:24:23;;;;;;;;;;;;;;;13.91;80.20;101448.16;5054682;28;19995;-46
2021/08/03 00:26:51;;;;;;;;;;;;;;;13.83;80.01;101443.41;5054313;28;19920;-43
2021/08/03 00:29:17;;;;;;;;;;;;;;;13.80;79.92;101440.16;5069837;28;20279;-46
2021/08/03 00:31:44;;;;;;;;;;;;;;;13.74;79.93;101432.63;5054506;28;19921;-46
2021/08/03 00:34:11;;;;;;;;;;;;;;;13.77;79.48;101435.06;5069805;28;19994;-49
2021/08/03 00:36:37;;;;;;;;;;;;;;;13.72;80.28;101437.19;5054593;28;20371;-50
2021/08/03 00:39:04;;;;;;;;;;;;;;;13.67;80.96;101435.72;5054380;28;19925;-47
2021/08/03 00:41:35;;;;;;;;;;;;;;;13.71;80.91;101427.56;5053029;28;19967;-44
2021/08/03 00:44:01;;;;;;;;;;;;;;;13.68;81.58;101426.81;5054127;28;20020;-46
2021/08/03 00:46:28;;;;;;;;;;;;;;;13.74;80.97;101436.09;5054225;28;20496;-47
2021/08/03 00:48:55;;;;;;;;;;;;;;;13.68;81.42;101423.34;5054473;28;20304;-48
2021/08/03 00:51:22;;;;;;;;;;;;;;;13.60;81.34;101428.31;5054012;28;19920;-49
2021/08/03 00:53:48;;;;;;;;;;;;;;;13.64;81.03;101427.97;5054010;28;19928;-45
2021/08/03 00:56:15;;;;;;;;;;;;;;;13.59;81.54;101431.88;5069398;28;19921;-49
2021/08/03 00:58:41;;;;;;;;;;;;;;;13.56;81.41;101422.38;5053854;28;19920;-48
2021/08/03 01:01:08;;;;;;;;;;;;;;;13.60;81.18;101420.38;5052996;28;19927;-47
2021/08/03 01:03:35;;;;;;;;;;;;;;;13.54;81.34;101413.72;5053968;28;19927;-47
2021/08/03 01:06:31;;;;;;;;;;;;;;;13.56;81.06;101414.44;5053686;28;19921;-50
2021/08/03 01:09:02;;;;;;;;;;;;;;;13.61;80.81;101416.78;5044779;28;20375;-49
2021/08/03 01:11:41;;;;;;;;;;;;;;;13.53;80.75;101412.03;5068864;28;19967;-50
2021/08/03 01:14:18;;;;;;;;;;;;;;;13.55;80.70;101419.84;5069085;28;19921;-51
2021/08/03 01:16:58;;;;;;;;;;;;;;;13.53;80.67;101420.78;5069000;28;19924;-59
2021/08/03 01:19:46;;;;;;;;;;;;;;;13.55;80.78;101414.56;5052369;28;19959;-60
2021/08/03 01:22:12;;;;;;;;;;;;;;;13.59;80.78;101416.88;5053381;28;19921;-60
2021/08/03 01:24:45;;;;;;;;;;;;;;;13.48;81.42;101419.41;5053386;28;20008;-60
2021/08/03 01:27:30;;;;;;;;;;;;;;;13.43;81.64;101419.75;5068496;28;20043;-59
2021/08/03 01:29:57;;;;;;;;;;;;;;;13.45;81.80;101420.47;5053243;28;19925;-60
2021/08/03 01:32:28;;;;;;;;;;;;;;;13.45;81.68;101423.09;5053209;28;19939;-50
2021/08/03 01:34:55;;;;;;;;;;;;;;;13.45;81.87;101422.28;5068757;28;19925;-47
2021/08/03 01:37:22;;;;;;;;;;;;;;;13.49;82.33;101419.31;5035390;28;19920;-60
2021/08/03 01:39:50;;;;;;;;;;;;;;;13.43;82.60;101408.31;5068647;28;19920;-60
2021/08/03 01:42:17;;;;;;;;;;;;;;;13.42;82.41;101414.56;5068563;28;19925;-50
2021/08/03 01:44:44;;;;;;;;;;;;;;;13.40;82.42;101416.44;5053134;28;20705;-60
2021/08/03 01:47:10;;;;;;;;;;;;;;;13.37;82.68;101416.66;5068407;28;19946;-44
2021/08/03 01:49:38;;;;;;;;;;;;;;;13.28;82.83;101418.94;5053118;28;20019;-59
2021/08/03 01:52:07;;;;;;;;;;;;;;;13.26;83.14;101415.53;5068368;28;19931;-47
2021/08/03 01:54:34;;;;;;;;;;;;;;;13.31;82.66;101416.09;5053090;28;19925;-59
2021/08/03 01:57:01;;;;;;;;;;;;;;;13.23;82.95;101415.75;5052760;28;19921;-45
2021/08/03 01:59:28;;;;;;;;;;;;;;;13.28;82.81;101416.31;5053133;28;19947;-49
2021/08/03 02:01:54;;;;;;;;;;;;;;;13.26;82.80;101415.53;5052991;28;19920;-46
2021/08/03 02:04:22;;;;;;;;;;;;;;;13.31;82.62;101416.09;5052860;28;19925;-46
2021/08/03 02:06:48;;;;;;;;;;;;;;;13.26;82.99;101415.53;5051362;28;19986;-45
2021/08/03 02:09:15;;;;;;;;;;;;;;;13.22;83.44;101416.69;5052910;28;20406;-49
2021/08/03 02:11:41;;;;;;;;;;;;;;;13.27;83.48;101419.06;5067786;28;19927;-47
2021/08/03 02:14:08;;;;;;;;;;;;;;;13.28;83.36;101415.44;5051827;28;20299;-46
2021/08/03 02:16:35;;;;;;;;;;;;;;;13.21;83.74;101419.44;5052619;28;20015;-59
2021/08/03 02:19:03;;;;;;;;;;;;;;;13.17;83.88;101417.03;5051511;28;19921;-60
2021/08/03 02:21:30;;;;;;;;;;;;;;;13.16;83.97;101417.13;5052622;28;19920;-45
2021/08/03 02:23:56;;;;;;;;;;;;;;;13.25;83.87;101415.66;5068345;28;20375;-46
2021/08/03 02:26:23;;;;;;;;;;;;;;;13.18;84.05;101417.84;5052959;28;19920;-48
2021/08/03 02:28:50;;;;;;;;;;;;;;;13.18;84.12;101418.72;5067893;28;19921;-60
2021/08/03 02:31:37;;;;;;;;;;;;;;;13.18;84.26;101413.44;5067982;28;19925;-60
2021/08/03 02:34:13;;;;;;;;;;;;;;;13.20;84.05;101421.25;5045341;28;19920;-59
2021/08/03 02:36:45;;;;;;;;;;;;;;;13.11;84.45;101422.69;5052389;28;19936;-60
2021/08/03 02:39:11;;;;;;;;;;;;;;;13.21;84.17;101420.31;5052499;28;20410;-60
2021/08/03 02:41:38;;;;;;;;;;;;;;;13.18;84.02;101420.50;5067728;28;19921;-47
2021/08/03 02:44:05;;;;;;;;;;;;;;;13.14;84.05;101411.97;5052465;28;19920;-44
2021/08/03 02:46:32;;;;;;;;;;;;;;;13.14;84.16;101406.69;5052413;28;19924;-44
2021/08/03 02:49:01;;;;;;;;;;;;;;;13.11;84.19;101408.66;5067743;28;19920;-45
2021/08/03 02:51:29;;;;;;;;;;;;;;;13.12;84.82;101407.72;5067293;28;20257;-49
2021/08/03 02:53:56;;;;;;;;;;;;;;;13.12;84.60;101413.00;5067919;28;20276;-47
2021/08/03 02:56:23;;;;;;;;;;;;;;;13.19;84.47;101416.91;5052510;28;19921;-49
2021/08/03 02:58:57;;;;;;;;;;;;;;;13.11;85.01;101412.13;5051035;28;19928;-51
2021/08/03 03:01:25;;;;;;;;;;;;;;;13.08;84.94;101406.25;5067566;28;19928;-49
2021/08/03 03:03:56;;;;;;;;;;;;;;;13.16;84.76;101403.94;5052194;28;20004;-48
2021/08/03 03:06:23;;;;;;;;;;;;;;;13.09;85.22;101405.25;5067622;28;19927;-45
2021/08/03 03:08:50;;;;;;;;;;;;;;;13.10;85.23;101402.56;5067325;28;19921;-47
2021/08/03 03:11:17;;;;;;;;;;;;;;;13.11;85.27;101401.56;5067396;28;19921;-48
2021/08/03 03:13:46;;;;;;;;;;;;;;;13.12;85.24;101402.44;5067446;28;20043;-60
2021/08/03 03:16:13;;;;;;;;;;;;;;;13.15;84.92;101402.22;5067689;28;19921;-47
2021/08/03 03:18:40;;;;;;;;;;;;;;;13.10;85.55;101405.19;5052240;28;20011;-59
2021/08/03 03:21:07;;;;;;;;;;;;;;;13.16;85.42;101406.56;5050663;28;19970;-47
2021/08/03 03:23:35;;;;;;;;;;;;;;;13.15;85.41;101399.59;5052589;28;19967;-48
2021/08/03 03:26:02;;;;;;;;;;;;;;;13.14;85.44;101401.41;5070738;28;19920;-48
2021/08/03 03:28:30;;;;;;;;;;;;;;;13.19;85.44;101401.06;5071299;28;19990;-47
2021/08/03 03:30:57;;;;;;;;;;;;;;;13.17;85.63;101398.53;5055500;28;19973;-59
2021/08/03 03:33:23;;;;;;;;;;;;;;;13.20;85.12;101400.13;5070656;28;19983;-60
2021/08/03 03:35:51;;;;;;;;;;;;;;;13.22;85.27;101400.84;5055120;28;19924;-49
2021/08/03 03:38:18;;;;;;;;;;;;;;;13.17;85.31;101398.53;5070648;28;19924;-48
2021/08/03 03:40:45;;;;;;;;;;;;;;;13.24;85.23;101404.25;5053938;28;19924;-60
2021/08/03 03:43:12;;;;;;;;;;;;;;;13.23;85.16;101399.91;5070304;28;19974;-60
2021/08/03 03:45:38;;;;;;;;;;;;;;;13.28;85.30;101402.22;5055095;28;19921;-60
2021/08/03 03:48:07;;;;;;;;;;;;;;;13.27;84.95;101406.69;5070339;28;19999;-50
2021/08/03 03:50:35;;;;;;;;;;;;;;;13.24;85.34;101401.63;5055290;28;19924;-59
2021/08/03 03:53:07;;;;;;;;;;;;;;;13.23;85.16;101397.28;5070355;28;20285;-47
2021/08/03 03:55:33;;;;;;;;;;;;;;;13.24;85.33;101401.63;5055255;28;20430;-45
2021/08/03 03:58:01;;;;;;;;;;;;;;;13.21;85.36;101403.59;5055140;28;20387;-45
2021/08/03 04:00:27;;;;;;;;;;;;;;;13.14;85.85;101397.88;5070388;28;20276;-50
2021/08/03 04:02:54;;;;;;;;;;;;;;;13.14;85.60;101396.13;5070264;28;20371;-61
2021/08/03 04:05:21;;;;;;;;;;;;;;;13.14;85.47;101401.41;5053552;28;19928;-61
2021/08/03 04:07:50;;;;;;;;;;;;;;;13.14;85.51;101396.13;5069777;28;19921;-60
2021/08/03 04:10:18;;;;;;;;;;;;;;;13.15;85.45;101392.50;5054785;28;20367;-60
2021/08/03 04:12:46;;;;;;;;;;;;;;;13.16;85.40;101398.66;5069708;28;19925;-60
2021/08/03 04:15:13;;;;;;;;;;;;;;;13.14;85.73;101396.13;5054801;28;19951;-60
2021/08/03 04:17:39;;;;;;;;;;;;;;;13.14;85.96;101389.97;5054857;28;19943;-60
2021/08/03 04:20:06;;;;;;;;;;;;;;;13.12;86.03;101392.72;5054661;28;19966;-60
2021/08/03 04:22:33;;;;;;;;;;;;;;;13.11;85.93;101388.38;5053748;28;19921;-60
2021/08/03 04:24:59;;;;;;;;;;;;;;;13.09;86.16;101386.78;5054831;28;19951;-47
2021/08/03 04:27:26;;;;;;;;;;;;;;;13.05;85.93;101390.56;5053222;28;19921;-48
2021/08/03 04:29:52;;;;;;;;;;;;;;;13.02;86.02;101400.41;5054624;28;20058;-60
2021/08/03 04:32:19;;;;;;;;;;;;;;;13.13;85.60;101388.28;5054471;28;19920;-60
2021/08/03 04:34:46;;;;;;;;;;;;;;;13.10;85.39;101388.47;5054424;28;20314;-60
2021/08/03 04:37:12;;;;;;;;;;;;;;;13.07;85.65;101400.09;5053299;28;19920;-60
2021/08/03 04:39:39;;;;;;;;;;;;;;;13.06;85.72;101395.78;5054615;28;20454;-47
2021/08/03 04:42:06;;;;;;;;;;;;;;;13.04;85.79;101399.47;5054125;28;20402;-60
2021/08/03 04:44:32;;;;;;;;;;;;;;;13.08;85.56;101387.75;5054518;28;19921;-47
2021/08/03 04:46:59;;;;;;;;;;;;;;;12.99;85.71;101391.84;5054270;28;19920;-50
2021/08/03 04:49:25;;;;;;;;;;;;;;;13.02;85.51;101381.09;5054155;28;19932;-45
2021/08/03 04:51:52;;;;;;;;;;;;;;;13.09;85.60;101387.66;5054019;28;19924;-60
2021/08/03 04:54:18;;;;;;;;;;;;;;;13.12;85.52;101392.72;5054085;28;19981;-61
2021/08/03 04:56:45;;;;;;;;;;;;;;;13.12;85.53;101392.72;5053926;28;19924;-44
2021/08/03 04:59:12;;;;;;;;;;;;;;;13.16;85.61;101386.28;5052816;28;19978;-46
2021/08/03 05:01:38;;;;;;;;;;;;;;;13.18;85.55;101389.69;5069443;28;19921;-51
2021/08/03 05:04:05;;;;;;;;;;;;;;;13.19;85.34;101387.88;5069158;28;19921;-49
2021/08/03 05:06:32;;;;;;;;;;;;;;;13.19;85.41;101390.50;5052614;28;19924;-46
2021/08/03 05:08:58;;;;;;;;;;;;;;;13.20;85.13;101397.50;5053545;28;19924;-44
2021/08/03 05:11:25;;;;;;;;;;;;;;;13.24;84.84;101404.25;5053810;28;20636;-46
2021/08/03 05:13:52;;;;;;;;;;;;;;;13.29;84.55;101403.94;5053548;28;19921;-60
2021/08/03 05:16:19;;;;;;;;;;;;;;;13.28;84.95;101395.19;5052565;28;19951;-48
2021/08/03 05:18:45;;;;;;;;;;;;;;;13.33;85.48;101392.22;5053637;28;19959;-61
2021/08/03 05:21:12;;;;;;;;;;;;;;;13.40;85.83;101397.94;5053582;28;20389;-61
2021/08/03 05:23:39;;;;;;;;;;;;;;;13.46;85.61;101395.75;5053633;28;19951;-61
2021/08/03 05:26:06;;;;;;;;;;;;;;;13.48;85.70;101391.22;5052046;28;19931;-48
2021/08/03 05:28:32;;;;;;;;;;;;;;;13.53;85.65;101393.53;5053413;28;19927;-48
2021/08/03 05:30:59;;;;;;;;;;;;;;;13.56;86.14;101392.47;5053195;28;19978;-50
2021/08/03 05:33:26;;;;;;;;;;;;;;;13.55;85.95;101388.97;5053609;28;19932;-50
2021/08/03 05:35:52;;;;;;;;;;;;;;;13.58;85.82;101382.63;5053030;28;19920;-46
2021/08/03 05:38:19;;;;;;;;;;;;;;;13.58;85.42;101388.78;5053012;28;19978;-48
2021/08/03 05:40:46;;;;;;;;;;;;;;;13.52;85.52;101382.13;5052819;28;19924;-46
2021/08/03 05:43:13;;;;;;;;;;;;;;;13.64;85.15;101398.91;5052755;28;19924;-60
2021/08/03 05:45:39;;;;;;;;;;;;;;;13.67;84.98;101393.44;5053019;28;19920;-46
2021/08/03 05:48:06;;;;;;;;;;;;;;;13.71;85.07;101393.22;5067720;28;20466;-44
2021/08/03 05:50:33;;;;;;;;;;;;;;;13.68;85.27;101386.34;5068307;28;19928;-61
2021/08/03 05:52:59;;;;;;;;;;;;;;;13.82;84.85;101388.00;5052962;28;19921;-52
2021/08/03 05:55:26;;;;;;;;;;;;;;;13.84;85.02;101383.47;5052917;28;19966;-61
2021/08/03 05:57:52;;;;;;;;;;;;;;;13.89;85.02;101388.41;5052846;28;19928;-61
2021/08/03 06:00:19;;;;;;;;;;;;;;;13.90;84.71;101390.94;5052907;28;19974;-49
2021/08/03 06:02:46;;;;;;;;;;;;;;;14.01;84.35;101388.38;5051560;28;19925;-60
2021/08/03 06:05:14;;;;;;;;;;;;;;;14.03;84.26;101386.50;5052850;28;20548;-61
2021/08/03 06:07:44;;;;;;;;;;;;;;;14.07;83.81;101383.63;5052749;28;19920;-60
2021/08/03 06:10:12;;;;;;;;;;;;;;;14.12;83.75;101381.50;5052957;28;19921;-60
2021/08/03 06:12:39;;;;;;;;;;;;;;;14.17;84.10;101379.38;5067864;28;20360;-48
2021/08/03 06:15:07;;;;;;;;;;;;;;;14.15;83.69;101374.19;5053231;28;20322;-50
2021/08/03 06:17:35;;;;;;;;;;;;;;;14.27;83.32;101384.84;5051462;28;19921;-60
2021/08/03 06:20:02;;;;;;;;;;;;;;;14.33;82.46;101369.38;5052574;28;19928;-59
2021/08/03 06:22:29;;;;;;;;;;;;;;;14.36;81.99;101370.94;5052707;28;19925;-59
2021/08/03 06:24:56;;;;;;;;;;;;;;;14.36;82.40;101368.31;5051234;28;19924;-59
2021/08/03 06:27:22;;;;;;;;;;;;;;;14.29;81.66;101367.03;5067847;28;20047;-48
2021/08/03 06:29:49;;;;;;;;;;;;;;;14.34;81.29;101371.06;5052460;28;20298;-47
2021/08/03 06:32:16;;;;;;;;;;;;;;;14.40;81.30;101375.06;5068061;28;19925;-49
2021/08/03 06:34:46;;;;;;;;;;;;;;;14.43;81.20;101363.41;5052526;28;20449;-60
2021/08/03 06:37:13;;;;;;;;;;;;;;;14.51;80.93;101369.81;5052759;28;19921;-50
2021/08/03 06:39:40;;;;;;;;;;;;;;;14.50;81.29;101370.75;5052610;28;19920;-61
2021/08/03 06:42:09;;;;;;;;;;;;;;;14.50;80.61;101375.22;5067795;28;19925;-47
2021/08/03 06:44:55;;;;;;;;;;;;;;;14.60;80.41;101373.59;5052455;28;19921;-50
2021/08/03 06:47:25;;;;;;;;;;;;;;;14.59;81.03;101374.56;5052541;28;19921;-49
2021/08/03 06:49:52;;;;;;;;;;;;;;;14.64;80.46;101372.44;5067520;28;19921;-60
2021/08/03 06:52:19;;;;;;;;;;;;;;;14.66;80.85;101377.63;5051107;28;19921;-61
2021/08/03 06:54:51;;;;;;;;;;;;;;;14.73;80.26;101380.66;5052048;28;19936;-61
2021/08/03 06:57:17;;;;;;;;;;;;;;;14.70;80.80;101381.75;5050970;28;20377;-61
2021/08/03 06:59:46;;;;;;;;;;;;;;;14.79;80.76;101381.06;5054096;28;19921;-61
2021/08/03 07:02:24;;;;;;;;;;;;;;;14.90;81.10;101374.09;5071661;28;20007;-61
2021/08/03 07:04:55;;;;;;;;;;;;;;;14.96;80.93;101377.13;5071354;28;19950;-61
2021/08/03 07:07:22;;;;;;;;;;;;;;;15.06;80.90;101371.97;5071121;28;19985;-61
2021/08/03 07:09:49;;;;;;;;;;;;;;;15.16;80.85;101382.72;5054584;28;20011;-61
2021/08/03 07:12:16;;;;;;;;;;;;;;;15.20;80.90;101381.50;5056095;28;19924;-61
2021/08/03 07:14:42;;;;;;;;;;;;;;;15.22;80.34;101374.31;5055754;28;20326;-61
2021/08/03 07:17:13;;;;;;;;;;;;;;;15.29;80.46;101380.81;5055671;28;19970;-61
2021/08/03 07:19:40;;;;;;;;;;;;;;;15.40;79.96;101369.41;5055863;28;20257;-61
2021/08/03 07:22:10;;;;;;;;;;;;;;;15.45;79.77;101372.53;5071074;28;20313;-61
2021/08/03 07:24:38;;;;;;;;;;;;;;;15.47;79.32;101373.25;5055551;28;19929;-61
2021/08/03 07:27:04;;;;;;;;;;;;;;;15.57;78.93;101373.41;5055828;28;19924;-61
2021/08/03 07:29:31;;;;;;;;;;;;;;;15.56;79.27;101374.34;5055615;28;19966;-61
2021/08/03 07:31:57;;;;;;;;;;;;;;;15.66;79.43;101371.81;5055606;28;20347;-61
2021/08/03 07:34:24;;;;;;;;;;;;;;;15.76;79.38;101377.25;5055347;28;19932;-60
2021/08/03 07:36:51;;;;;;;;;;;;;;;15.82;79.63;101372.34;5055573;28;19924;-61
2021/08/03 07:39:18;;;;;;;;;;;;;;;15.88;78.85;101376.31;5055524;28;19932;-61
2021/08/03 07:41:45;;;;;;;;;;;;;;;16.01;77.94;101370.88;5055339;28;19920;-61
2021/08/03 07:44:11;;;;;;;;;;;;;;;16.07;78.10;101366.91;5055360;28;19920;-61
2021/08/03 07:46:38;;;;;;;;;;;;;;;16.26;77.88;101361.78;5055334;28;19925;-62
2021/08/03 07:49:05;;;;;;;;;;;;;;;16.45;77.38;101360.28;5053839;28;19967;-62
2021/08/03 07:51:32;;;;;;;;;;;;;;;16.62;77.38;101364.19;5055134;28;19921;-62
2021/08/03 07:53:58;;;;;;;;;;;;;;;16.82;76.84;101363.38;5055030;28;19920;-61
2021/08/03 07:56:25;;;;;;;;;;;;;;;16.88;75.00;101362.88;5055105;28;19928;-61
2021/08/03 07:58:52;;;;;;;;;;;;;;;16.87;74.40;101363.00;5055135;28;19921;-46
2021/08/03 08:01:18;;;;;;;;;;;;;;;16.95;74.21;101365.06;5053856;28;19964;-61
2021/08/03 08:03:46;;;;;;;;;;;;;;;17.06;73.89;101359.69;5070450;28;20418;-61
2021/08/03 08:06:13;;;;;;;;;;;;;;;17.04;73.44;101357.16;5054796;28;20383;-60
2021/08/03 08:08:40;;;;;;;;;;;;;;;17.10;73.16;101361.09;5069691;28;19921;-48
2021/08/03 08:11:06;;;;;;;;;;;;;;;16.98;74.13;101360.31;5054045;28;19928;-49
2021/08/03 08:13:33;;;;;;;;;;;;;;;17.09;73.57;101364.72;5053022;28;19920;-50
2021/08/03 08:16:00;;;;;;;;;;;;;;;17.14;73.64;101351.91;5054064;28;20386;-60
2021/08/03 08:18:26;;;;;;;;;;;;;;;17.29;73.06;101351.53;5052942;28;19924;-60
2021/08/03 08:20:53;;;;;;;;;;;;;;;17.27;72.98;101349.03;5069614;28;19924;-61
2021/08/03 08:23:20;;;;;;;;;;;;;;;17.38;72.53;101346.31;5054741;28;20035;-61
2021/08/03 08:25:46;;;;;;;;;;;;;;;17.48;72.30;101343.69;5054665;28;19928;-61
2021/08/03 08:28:13;;;;;;;;;;;;;;;17.57;72.71;101352.66;5054728;28;19920;-60
2021/08/03 08:30:40;;;;;;;;;;;;;;;17.66;71.40;101348.38;5054378;28;20439;-62
2021/08/03 08:33:07;;;;;;;;;;;;;;;17.83;70.76;101349.53;5054264;28;20266;-61
2021/08/03 08:35:36;;;;;;;;;;;;;;;17.79;70.72;101350.78;5069239;28;19924;-61
2021/08/03 08:38:04;;;;;;;;;;;;;;;17.84;70.82;101343.25;5053182;28;19951;-61
2021/08/03 08:40:30;;;;;;;;;;;;;;;17.97;70.52;101351.88;5054127;28;19966;-61
2021/08/03 08:42:57;;;;;;;;;;;;;;;18.13;70.32;101346.00;5052636;28;19921;-61
2021/08/03 08:45:23;;;;;;;;;;;;;;;18.20;70.16;101355.16;5053735;28;19941;-61
2021/08/03 08:47:50;;;;;;;;;;;;;;;18.30;69.59;101352.50;5054315;28;20304;-48
2021/08/03 08:50:20;;;;;;;;;;;;;;;18.33;68.94;101351.38;5053895;28;19967;-52
2021/08/03 08:52:50;;;;;;;;;;;;;;;18.31;69.56;101351.53;5053635;28;19924;-62
2021/08/03 08:55:17;;;;;;;;;;;;;;;18.44;69.31;101356.56;5053600;28;19932;-61
2021/08/03 08:57:47;;;;;;;;;;;;;;;18.27;69.60;101350.13;5053538;28;19964;-61
2021/08/03 09:00:14;;;;;;;;;;;;;;;18.28;68.65;101354.44;5053540;28;19928;-48
2021/08/03 09:02:41;;;;;;;;;;;;;;;18.31;68.90;101355.97;5053631;28;19920;-49
2021/08/03 09:05:09;;;;;;;;;;;;;;;18.41;68.94;101346.19;5053640;28;19920;-50
2021/08/03 09:07:45;;;;;;;;;;;;;;;18.47;68.50;101342.13;5053520;28;20024;-61
2021/08/03 09:10:20;;;;;;;;;;;;;;;18.59;68.98;101349.00;5053668;28;19927;-47
2021/08/03 09:12:47;;;;;;;;;;;;;;;18.72;67.45;101341.56;5068772;28;20383;-51
2021/08/03 09:15:20;;;;;;;;;;;;;;;18.68;67.08;101348.16;5068836;28;19924;-50
2021/08/03 09:17:47;;;;;;;;;;;;;;;18.81;67.87;101342.53;5053787;28;19924;-61
2021/08/03 09:20:14;;;;;;;;;;;;;;;18.84;67.92;101346.75;5053414;28;19960;-46
2021/08/03 09:22:46;;;;;;;;;;;;;;;18.94;68.01;101350.28;5051443;28;19951;-48
2021/08/03 09:25:17;;;;;;;;;;;;;;;19.05;66.20;101357.28;5068822;28;20391;-49
2021/08/03 09:27:46;;;;;;;;;;;;;;;19.20;66.46;101355.00;5053382;28;19921;-47
2021/08/03 09:30:16;;;;;;;;;;;;;;;19.20;65.46;101358.50;5053230;28;19927;-51
2021/08/03 09:32:43;;;;;;;;;;;;;;;19.25;65.54;101358.06;5053263;28;19931;-61
2021/08/03 09:35:12;;;;;;;;;;;;;;;19.40;67.12;101348.63;5068430;28;19924;-62
2021/08/03 09:37:39;;;;;;;;;;;;;;;19.50;65.97;101355.75;5053026;28;19921;-61
2021/08/03 09:40:07;;;;;;;;;;;;;;;19.52;65.01;101351.09;5053037;28;19925;-61
2021/08/03 09:42:34;;;;;;;;;;;;;;;19.65;64.16;101350.78;5068527;28;20418;-61
2021/08/03 09:45:02;;;;;;;;;;;;;;;19.58;63.66;101350.53;5052968;28;19929;-61
2021/08/03 09:47:30;;;;;;;;;;;;;;;19.67;64.26;101354.13;5053032;28;20299;-61
2021/08/03 09:49:58;;;;;;;;;;;;;;;19.74;64.76;101350.72;5052086;28;19924;-61
2021/08/03 09:52:25;;;;;;;;;;;;;;;19.84;65.73;101358.72;5053067;28;19920;-61
2021/08/03 09:55:11;;;;;;;;;;;;;;;19.95;62.79;101357.69;5052747;28;19929;-50
2021/08/03 09:57:38;;;;;;;;;;;;;;;20.08;62.59;101350.16;5051690;28;19925;-51
2021/08/03 10:00:24;;;;;;;;;;;;;;;20.10;61.26;101348.16;5052798;28;20055;-61
2021/08/03 10:02:52;;;;;;;;;;;;;;;20.25;59.28;101348.47;5052668;28;20275;-61
2021/08/03 10:05:19;;;;;;;;;;;;;;;20.41;62.69;101347.81;5067923;28;19925;-61
2021/08/03 10:07:46;;;;;;;;;;;;;;;20.61;60.98;101347.66;5052517;28;19920;-61
2021/08/03 10:10:13;;;;;;;;;;;;;;;20.43;60.19;101356.50;5052695;28;19921;-52
2021/08/03 10:12:39;;;;;;;;;;;;;;;20.40;59.53;101351.47;5052892;28;19921;-51
2021/08/03 10:15:08;;;;;;;;;;;;;;;20.47;59.96;101343.69;5067794;28;19925;-62
2021/08/03 10:17:35;;;;;;;;;;;;;;;20.59;59.55;101341.63;5052678;28;19928;-50
2021/08/03 10:20:02;;;;;;;;;;;;;;;20.69;58.73;101339.72;5052718;28;20348;-48
2021/08/03 10:22:52;;;;;;;;;;;;;;;20.71;58.21;101332.41;5052650;28;19927;-51
2021/08/03 10:25:19;;;;;;;;;;;;;;;20.81;57.31;101335.00;5047049;28;19971;-51
2021/08/03 10:27:46;;;;;;;;;;;;;;;21.10;55.55;101331.19;5052679;28;19920;-61
2021/08/03 10:30:28;;;;;;;;;;;;;;;21.10;57.56;101334.72;5052450;28;19928;-50
2021/08/03 10:32:59;;;;;;;;;;;;;;;21.13;56.41;101327.34;5052749;28;19935;-51
2021/08/03 10:35:59;;;;;;;;;;;;;;;21.02;57.07;101329.28;5056790;28;19921;-51
2021/08/03 10:38:28;;;;;;;;;;;;;;;21.17;57.63;101324.19;5033975;28;19921;-60
2021/08/03 10:40:56;;;;;;;;;;;;;;;20.50;58.21;101323.84;5055253;28;19967;-51
2021/08/03 10:43:36;;;;;;;;;;;;;;;20.69;57.13;101322.88;5056471;28;19994;-51
2021/08/03 10:46:05;;;;;;;;;;;;;;;20.77;57.65;101320.25;5071767;28;19944;-49
2021/08/03 10:48:38;;;;;;;;;;;;;;;20.67;57.76;101314.13;5056503;28;19921;-61
2021/08/03 10:51:17;;;;;;;;;;;;;;;20.84;57.75;101320.47;5056299;28;19924;-51
2021/08/03 10:54:02;;;;;;;;;;;;;;;20.92;57.76;101323.22;5056404;28;20368;-52
2021/08/03 10:56:29;;;;;;;;;;;;;;;20.95;55.56;101322.88;5071902;28;19920;-50
2021/08/03 10:59:15;;;;;;;;;;;;;;;20.91;56.96;101316.19;5071386;28;19944;-46
2021/08/03 11:01:42;;;;;;;;;;;;;;;20.94;56.49;101315.84;5056139;28;20280;-51
2021/08/03 11:04:09;;;;;;;;;;;;;;;20.80;56.28;101319.94;5071322;28;19927;-51
2021/08/03 11:06:37;;;;;;;;;;;;;;;20.86;56.27;101316.66;5071293;28;20317;-48
2021/08/03 11:09:23;;;;;;;;;;;;;;;21.00;55.79;101328.59;5056131;28;20336;-49
2021/08/03 11:11:50;;;;;;;;;;;;;;;21.02;55.22;101313.22;5055655;28;19951;-61
2021/08/03 11:14:26;;;;;;;;;;;;;;;20.99;55.38;101308.22;5055808;28;19921;-50
2021/08/03 11:16:53;;;;;;;;;;;;;;;20.93;55.10;101308.84;5055806;28;20303;-47
2021/08/03 11:19:30;;;;;;;;;;;;;;;20.89;55.82;101313.66;5071115;28;19921;-49
2021/08/03 11:21:56;;;;;;;;;;;;;;;20.85;54.86;101312.31;5071192;28;19921;-61
2021/08/03 11:24:33;;;;;;;;;;;;;;;20.96;54.40;101308.53;5055961;28;19924;-61
2021/08/03 11:26:59;;;;;;;;;;;;;;;20.97;55.33;101314.72;5054570;28;19920;-61
2021/08/03 11:29:27;;;;;;;;;;;;;;;20.96;54.50;101308.53;5055577;28;19974;-48
2021/08/03 11:31:54;;;;;;;;;;;;;;;20.94;54.16;101305.16;5070878;28;20003;-61
2021/08/03 11:34:21;;;;;;;;;;;;;;;20.99;53.78;101297.50;5055573;28;19951;-51
2021/08/03 11:36:55;;;;;;;;;;;;;;;21.02;55.49;101302.53;5055665;28;20359;-61
2021/08/03 11:39:29;;;;;;;;;;;;;;;20.99;54.54;101302.03;5055451;28;19928;-48
2021/08/03 11:41:56;;;;;;;;;;;;;;;20.97;54.22;101299.53;5055270;28;19925;-61
2021/08/03 11:44:23;;;;;;;;;;;;;;;21.00;54.52;101299.19;5055535;28;19982;-53
2021/08/03 11:47:00;;;;;;;;;;;;;;;20.81;54.06;101302.91;5054698;28;19921;-60
2021/08/03 11:49:27;;;;;;;;;;;;;;;20.72;55.00;101302.03;5055284;28;19932;-61
2021/08/03 11:52:05;;;;;;;;;;;;;;;20.87;54.28;101299.59;5055135;28;19921;-61
2021/08/03 11:54:32;;;;;;;;;;;;;;;20.87;54.83;101299.59;5055336;28;19921;-61
2021/08/03 11:56:59;;;;;;;;;;;;;;;20.68;55.68;101298.00;5055027;28;20429;-61
2021/08/03 11:59:31;;;;;;;;;;;;;;;20.72;57.28;101299.34;5055063;28;19950;-61
2021/08/03 12:01:58;;;;;;;;;;;;;;;20.62;57.13;101287.06;5070421;28;19974;-51
2021/08/03 12:04:26;;;;;;;;;;;;;;;20.59;55.07;101297.03;5070213;28;20347;-50
2021/08/03 12:06:53;;;;;;;;;;;;;;;20.68;56.07;101292.66;5054548;28;19921;-51
2021/08/03 12:09:34;;;;;;;;;;;;;;;20.50;56.93;101283.78;5053724;28;19944;-50
2021/08/03 12:12:01;;;;;;;;;;;;;;;20.62;57.07;101292.41;5070006;28;20364;-60
2021/08/03 12:14:33;;;;;;;;;;;;;;;20.56;57.35;101291.16;5054833;28;20578;-49
2021/08/03 12:17:00;;;;;;;;;;;;;;;20.55;53.51;101286.84;5054577;28;19920;-60
2021/08/03 12:19:28;;;;;;;;;;;;;;;20.58;53.35;101289.19;5054687;28;20268;-60
2021/08/03 12:21:55;;;;;;;;;;;;;;;20.58;54.46;101291.84;5053404;28;20296;-60
2021/08/03 12:24:21;;;;;;;;;;;;;;;20.60;54.25;101284.50;5054761;28;19921;-49
2021/08/03 12:26:48;;;;;;;;;;;;;;;20.57;54.15;101287.50;5054431;28;19924;-48
2021/08/03 12:29:18;;;;;;;;;;;;;;;20.49;54.43;101285.63;5054568;28;20445;-51
2021/08/03 12:31:44;;;;;;;;;;;;;;;20.38;54.81;101285.84;5069679;28;19920;-52
2021/08/03 12:34:16;;;;;;;;;;;;;;;20.32;55.54;101281.97;5054450;28;19927;-59
2021/08/03 12:36:49;;;;;;;;;;;;;;;20.35;56.21;101281.63;5053073;28;19920;-48
2021/08/03 12:39:20;;;;;;;;;;;;;;;20.46;56.96;101279.75;5069577;28;19928;-60
2021/08/03 12:42:00;;;;;;;;;;;;;;;20.56;55.93;101275.13;5054342;28;19927;-61
2021/08/03 12:44:27;;;;;;;;;;;;;;;20.42;56.60;101284.53;5054236;28;19927;-61